createdAt,value
2022-08-17T00:02:25.893Z,95498.75
2022-08-17T00:07:30.881Z,95495.66
2022-08-17T00:12:44.335Z,95494.63
2022-08-17T00:17:49.125Z,95498.81
2022-08-17T00:23:02.593Z,95503.41
2022-08-17T00:28:06.145Z,95507.00
2022-08-17T00:33:15.711Z,95501.13
2022-08-17T00:38:21.592Z,95519.59
2022-08-17T00:43:30.927Z,95521.44
2022-08-17T00:48:34.489Z,95520.84
2022-08-17T00:53:51.294Z,95521.44
2022-08-17T00:58:56.188Z,95509.66
2022-08-17T01:03:59.886Z,95498.56
2022-08-17T01:09:05.529Z,95506.72
2022-08-17T01:14:08.921Z,95528.66
2022-08-17T01:19:17.233Z,95534.75
2022-08-17T01:24:21.447Z,95541.69
2022-08-17T01:29:25.397Z,95529.47
2022-08-17T01:34:42.831Z,95542.72
2022-08-17T01:39:56.979Z,95563.84
2022-08-17T01:45:05.232Z,95569.59
2022-08-17T01:50:10.771Z,95495.72
2022-08-17T01:55:18.033Z,95503.00
2022-08-17T02:00:20.861Z,95521.78
2022-08-17T02:05:23.666Z,95539.88
2022-08-17T02:10:33.708Z,95535.69
2022-08-17T02:15:37.071Z,95541.66
2022-08-17T02:20:42.511Z,95543.38
2022-08-17T02:25:48.853Z,95540.94
2022-08-17T02:31:01.353Z,95533.53
2022-08-17T02:36:08.925Z,95526.59
2022-08-17T02:41:13.419Z,95517.41
2022-08-17T02:46:16.097Z,95487.84
2022-08-17T02:51:19.402Z,95482.41
2022-08-17T02:56:23.663Z,95473.66
2022-08-17T03:01:28.024Z,95475.84
2022-08-17T03:06:31.791Z,95486.06
2022-08-17T03:11:36.126Z,95491.66
2022-08-17T03:16:38.976Z,95496.31
2022-08-17T03:21:42.117Z,95497.00
2022-08-17T03:26:46.313Z,95492.84
2022-08-17T03:31:49.711Z,95484.59
2022-08-17T03:36:52.538Z,95464.16
2022-08-17T03:42:02.585Z,95459.97
2022-08-17T03:47:22.964Z,95464.50
2022-08-17T03:52:43.241Z,95439.78
2022-08-17T03:57:48.889Z,95441.41
2022-08-17T04:02:51.879Z,95451.16
2022-08-17T04:07:54.970Z,95432.44
2022-08-17T04:12:59.356Z,95445.50
2022-08-17T04:18:02.142Z,95458.97
2022-08-17T04:23:09.388Z,95452.94
2022-08-17T04:28:16.138Z,95476.53
2022-08-17T04:33:21.771Z,95492.44
2022-08-17T04:38:26.762Z,95494.47
2022-08-17T04:43:32.530Z,95507.94
2022-08-17T04:48:38.016Z,95504.69
2022-08-17T04:53:42.469Z,95524.03
2022-08-17T04:58:49.782Z,95520.34
2022-08-17T05:03:53.981Z,95546.94
2022-08-17T05:08:57.947Z,95564.41
2022-08-17T05:14:02.138Z,95565.56
2022-08-17T05:19:04.958Z,95574.81
2022-08-17T05:24:38.177Z,95570.06
2022-08-17T05:29:34.298Z,95585.28
2022-08-17T05:34:38.415Z,95591.13
2022-08-17T05:39:41.725Z,95590.53
2022-08-17T05:44:45.893Z,95607.97
2022-08-17T05:49:48.965Z,95621.34
2022-08-17T05:55:03.720Z,95634.66
2022-08-17T06:00:17.010Z,95628.00
2022-08-17T06:05:38.678Z,95624.59
2022-08-17T06:10:48.134Z,95623.72
2022-08-17T06:15:59.200Z,95634.94
2022-08-17T06:21:06.404Z,95640.28
2022-08-17T06:26:13.895Z,95628.78
2022-08-17T06:31:22.547Z,95618.53
2022-08-17T06:36:40.750Z,95591.03
2022-08-17T06:41:52.067Z,95607.63
2022-08-17T06:47:04.595Z,95609.88
2022-08-17T06:52:43.432Z,95614.78
2022-08-17T06:57:43.367Z,95622.88
2022-08-17T07:02:54.312Z,95618.44
2022-08-17T07:08:04.352Z,95598.66
2022-08-17T07:13:22.846Z,95616.41
2022-08-17T07:18:33.030Z,95619.78
2022-08-17T07:23:50.743Z,95619.44
2022-08-17T07:28:56.148Z,95612.63
2022-08-17T07:34:06.706Z,95608.72
2022-08-17T07:39:10.633Z,95615.78
2022-08-17T07:44:16.374Z,95614.78
2022-08-17T07:49:37.092Z,95625.25
2022-08-17T07:54:42.037Z,95612.28
2022-08-17T08:00:12.632Z,95624.69
2022-08-17T08:05:30.719Z,95635.09
2022-08-17T08:11:00.237Z,95639.38
2022-08-17T08:16:24.378Z,95639.50
2022-08-17T08:21:46.442Z,95634.63
2022-08-17T08:26:58.019Z,95630.47
2022-08-17T08:32:08.754Z,95642.97
2022-08-17T08:37:35.529Z,95640.19
2022-08-17T08:42:51.172Z,95633.22
2022-08-17T08:48:22.781Z,95621.16
2022-08-17T08:53:48.567Z,95620.53
2022-08-17T08:58:59.214Z,95611.81
2022-08-17T09:04:24.568Z,95631.41
2022-08-17T09:09:43.771Z,95621.13
2022-08-17T09:14:55.443Z,95631.31
2022-08-17T09:20:05.020Z,95636.03
2022-08-17T09:25:13.547Z,95623.19
2022-08-17T09:30:16.778Z,95616.16
2022-08-17T09:35:25.060Z,95612.19
2022-08-17T09:40:46.089Z,95621.09
2022-08-17T09:45:54.263Z,95615.00
2022-08-17T09:51:06.415Z,95608.13
2022-08-17T09:56:35.178Z,95599.22
2022-08-17T10:01:40.739Z,95595.47
2022-08-17T10:06:53.407Z,95604.41
2022-08-17T10:12:23.578Z,95588.41
2022-08-17T10:17:42.318Z,95582.44
2022-08-17T10:23:10.037Z,95589.84
2022-08-17T10:28:20.301Z,95584.47
2022-08-17T10:33:27.877Z,95580.09
2022-08-17T10:38:47.038Z,95562.91
2022-08-17T10:44:37.175Z,95551.59
2022-08-17T10:49:30.273Z,95545.72
2022-08-17T10:54:39.185Z,95538.41
2022-08-17T10:59:53.905Z,95537.06
2022-08-17T11:05:10.200Z,95528.78
2022-08-17T11:10:28.782Z,95526.19
2022-08-17T11:15:51.450Z,95524.66
2022-08-17T11:21:13.333Z,95528.09
2022-08-17T11:26:26.152Z,95523.09
2022-08-17T11:31:38.474Z,95514.03
2022-08-17T11:37:08.725Z,95503.88
2022-08-17T11:42:27.127Z,95506.03
2022-08-17T11:48:16.360Z,95481.34
2022-08-17T11:54:31.512Z,95476.00
2022-08-17T12:00:08.357Z,95477.28
2022-08-17T12:05:30.914Z,95470.56
2022-08-17T12:10:37.256Z,95445.00
2022-08-17T12:15:49.511Z,95447.38
2022-08-17T12:21:12.089Z,95444.34
2022-08-17T12:26:22.101Z,95442.66
2022-08-17T12:31:27.383Z,95429.06
2022-08-17T12:36:33.018Z,95425.28
2022-08-17T12:41:39.432Z,95420.16
2022-08-17T12:46:57.365Z,95407.44
2022-08-17T12:52:13.980Z,95403.56
2022-08-17T12:57:19.597Z,95393.00
2022-08-17T13:02:33.392Z,95384.88
2022-08-17T13:07:43.090Z,95369.53
2022-08-17T13:12:46.006Z,95361.94
2022-08-17T13:18:02.084Z,95345.97
2022-08-17T13:23:12.471Z,95350.22
2022-08-17T13:28:35.730Z,95362.38
2022-08-17T13:33:43.710Z,95373.56
2022-08-17T13:38:51.664Z,95382.78
2022-08-17T13:43:54.494Z,95377.00
2022-08-17T13:49:02.921Z,95369.09
2022-08-17T13:54:20.317Z,95370.91
2022-08-17T13:59:38.212Z,95376.72
2022-08-17T14:04:54.757Z,95384.72
2022-08-17T14:10:02.026Z,95379.13
2022-08-17T14:15:06.128Z,95360.50
2022-08-17T14:20:12.144Z,95361.56
2022-08-17T14:25:19.544Z,95373.13
2022-08-17T14:30:24.909Z,95363.31
2022-08-17T14:35:29.315Z,95348.75
2022-08-17T14:40:34.696Z,95339.66
2022-08-17T14:45:37.494Z,95343.31
2022-08-17T14:50:43.505Z,95350.38
2022-08-17T14:55:47.700Z,95368.47
2022-08-17T15:00:51.814Z,95375.81
2022-08-17T15:05:55.230Z,95374.41
2022-08-17T15:10:59.294Z,95351.72
2022-08-17T15:16:02.507Z,95336.66
2022-08-17T15:21:05.908Z,95356.31
2022-08-17T15:26:12.574Z,95313.03
2022-08-17T15:31:15.687Z,95305.47
2022-08-17T15:36:19.017Z,95332.69
2022-08-17T15:41:23.190Z,95358.69
2022-08-17T15:46:27.147Z,95410.66
2022-08-17T15:51:31.106Z,95438.91
2022-08-17T15:56:35.334Z,95487.13
2022-08-17T16:03:01.792Z,95554.00
2022-08-17T16:07:02.508Z,95648.25
2022-08-17T16:12:14.791Z,95686.53
2022-08-17T16:17:38.301Z,95709.94
2022-08-17T16:22:43.875Z,95684.31
2022-08-17T16:27:53.413Z,95649.75
2022-08-17T16:32:58.241Z,95601.47
2022-08-17T16:38:01.134Z,95552.06
2022-08-17T16:43:10.539Z,95546.16
2022-08-17T16:48:15.616Z,95525.56
2022-08-17T16:53:19.049Z,95567.25
2022-08-17T16:58:26.213Z,95589.88
2022-08-17T17:03:31.329Z,95648.78
2022-08-17T17:08:42.095Z,95682.91
2022-08-17T17:13:54.119Z,95737.38
2022-08-17T17:19:10.176Z,95779.69
2022-08-17T17:24:18.706Z,95760.91
2022-08-17T17:29:33.970Z,95784.81
2022-08-17T17:34:58.759Z,95818.84
2022-08-17T17:40:06.185Z,95821.53
2022-08-17T17:45:18.302Z,95809.16
2022-08-17T17:50:25.792Z,95749.25
2022-08-17T17:56:02.814Z,95791.78
2022-08-17T18:01:20.723Z,95800.28
2022-08-17T18:06:35.540Z,95818.44
2022-08-17T18:12:02.558Z,95815.06
2022-08-17T18:17:07.823Z,95818.31
2022-08-17T18:22:17.703Z,95803.69
2022-08-17T18:27:24.811Z,95825.19
2022-08-17T18:32:35.774Z,95826.97
2022-08-17T18:37:42.715Z,95848.28
2022-08-17T18:42:47.620Z,95872.69
2022-08-17T18:47:56.085Z,95874.25
2022-08-17T18:53:21.478Z,95890.91
2022-08-17T18:58:29.765Z,95887.25
2022-08-17T19:03:43.418Z,95893.78
2022-08-17T19:08:46.243Z,95898.03
2022-08-17T19:13:55.905Z,95881.59
2022-08-17T19:19:05.938Z,95904.34
2022-08-17T19:24:19.223Z,95882.00
2022-08-17T19:29:26.287Z,95880.78
2022-08-17T19:34:34.609Z,95905.94
2022-08-17T19:39:44.789Z,95893.13
2022-08-17T19:44:56.557Z,95903.03
2022-08-17T19:50:09.768Z,95896.69
2022-08-17T19:55:22.147Z,95897.06
2022-08-17T20:00:25.369Z,95880.78
2022-08-17T20:05:44.415Z,95890.53
2022-08-17T20:11:00.427Z,95886.47
2022-08-17T20:16:04.743Z,95879.94
2022-08-17T20:21:19.975Z,95906.53
2022-08-17T20:26:27.296Z,95902.53
2022-08-17T20:31:45.913Z,95885.69
2022-08-17T20:37:01.703Z,95885.09
2022-08-17T20:42:09.030Z,95885.53
2022-08-17T20:47:21.790Z,95889.16
2022-08-17T20:52:47.891Z,95879.63
2022-08-17T20:57:50.828Z,95883.88
2022-08-17T21:03:50.567Z,95883.88
2022-08-17T21:09:29.658Z,95877.00
2022-08-17T21:14:42.131Z,95867.03
2022-08-17T21:20:11.069Z,95856.66
2022-08-17T21:25:34.506Z,95845.31
2022-08-17T21:30:47.598Z,95866.00
2022-08-17T21:35:54.336Z,95881.03
2022-08-17T21:41:02.922Z,95886.34
2022-08-17T21:46:09.384Z,95890.44
2022-08-17T21:51:17.617Z,95879.91
2022-08-17T21:56:30.233Z,95886.78
2022-08-17T22:01:35.841Z,95878.00
2022-08-17T22:06:41.028Z,95876.16
2022-08-17T22:12:04.402Z,95865.16
2022-08-17T22:17:15.710Z,95868.53
2022-08-17T22:22:28.665Z,95879.09
2022-08-17T22:27:54.077Z,95886.25
2022-08-17T22:32:58.125Z,95902.72
2022-08-17T22:38:29.687Z,95906.97
2022-08-17T22:43:43.084Z,95906.47
2022-08-17T22:48:50.179Z,95909.63
2022-08-17T22:54:13.529Z,95916.88
2022-08-17T22:59:34.102Z,95909.16
2022-08-17T23:04:39.458Z,95910.34
2022-08-17T23:09:42.694Z,95910.25
2022-08-17T23:14:49.367Z,95911.69
2022-08-17T23:19:52.169Z,95919.84
2022-08-17T23:24:55.210Z,95914.53
2022-08-17T23:29:59.854Z,95907.66
2022-08-17T23:35:02.634Z,95904.91
2022-08-17T23:40:06.402Z,95896.53
2022-08-17T23:45:11.339Z,95885.78
2022-08-17T23:50:14.553Z,95869.31
2022-08-17T23:55:17.590Z,95864.88
